Time;durP1;ratioP1;P1;durP2;ratioP2;P2;SDS_P1;SDS_P2;PMS_P1;PMS_P2;Temp;Humidity;BMP_temperature;BMP_pressure;BME280_temperature;BME280_humidity;BME280_pressure;Samples;Min_cycle;Max_cycle;Signal;HPM_P1;HPM_P2
2021/10/19 00:00:44;;;;;;;;;;;26.60;43.10;;;;;;5129151;27;20329;-79
2021/10/19 00:03:12;;;;;;;;;;;26.60;43.20;;;;;;5128893;27;20366;-79
2021/10/19 00:05:38;;;;;;;;;;;26.60;43.10;;;;;;5111430;28;19955;-78
2021/10/19 00:08:04;;;;;;;;;;;26.60;43.20;;;;;;5128951;27;20000;-79
2021/10/19 00:10:29;;;;;;;;;;;26.60;43.20;;;;;;5095505;28;20352;-80
2021/10/19 00:12:57;;;;;;;;;;;26.60;43.20;;;;;;5094839;28;19908;-79
2021/10/19 00:15:23;;;;;;;;;;;26.60;43.20;;;;;;5111295;28;20288;-79
2021/10/19 00:17:48;;;;;;;;;;;26.60;43.20;;;;;;5111682;28;20366;-81
2021/10/19 00:20:14;;;;;;;;;;;26.60;43.30;;;;;;5128524;27;20288;-78
2021/10/19 00:22:42;;;;;;;;;;;26.60;43.30;;;;;;5128677;27;19922;-79
2021/10/19 00:25:09;;;;;;;;;;;26.60;43.30;;;;;;5128719;27;20313;-82
2021/10/19 00:27:37;;;;;;;;;;;26.60;43.30;;;;;;5111157;28;19974;-79
2021/10/19 00:30:06;;;;;;;;;;;26.60;43.30;;;;;;5111399;28;19908;-82
2021/10/19 00:32:33;;;;;;;;;;;26.60;43.30;;;;;;5111637;28;19912;-79
2021/10/19 00:34:59;;;;;;;;;;;26.50;43.30;;;;;;5127615;27;19980;-78
2021/10/19 00:37:24;;;;;;;;;;;26.50;43.30;;;;;;5094083;28;20349;-82
2021/10/19 00:39:52;;;;;;;;;;;26.50;43.40;;;;;;5111581;28;19912;-82
2021/10/19 00:42:18;;;;;;;;;;;26.50;43.30;;;;;;5128596;27;19923;-79
2021/10/19 00:44:44;;;;;;;;;;;26.60;43.40;;;;;;5097038;28;19927;-81
2021/10/19 00:47:19;;;;;;;;;;;26.50;43.40;;;;;;5099111;28;19914;-78
2021/10/19 00:49:48;;;;;;;;;;;26.50;43.40;;;;;;5099327;28;20002;-78
2021/10/19 00:52:14;;;;;;;;;;;26.50;43.40;;;;;;5095318;28;20345;-80
2021/10/19 00:54:43;;;;;;;;;;;26.50;43.50;;;;;;5129015;28;19914;-80
2021/10/19 00:57:08;;;;;;;;;;;26.50;43.50;;;;;;5127711;28;19908;-83
2021/10/19 00:59:36;;;;;;;;;;;26.50;43.50;;;;;;5095104;28;19908;-80
2021/10/19 01:02:03;;;;;;;;;;;26.50;43.50;;;;;;5127754;28;19908;-79
2021/10/19 01:04:28;;;;;;;;;;;26.50;43.50;;;;;;5095308;28;19909;-80
2021/10/19 01:06:54;;;;;;;;;;;26.50;43.50;;;;;;5128496;28;19919;-78
2021/10/19 01:09:19;;;;;;;;;;;26.50;43.60;;;;;;5128352;28;19908;-79
2021/10/19 01:11:47;;;;;;;;;;;26.50;43.50;;;;;;5093917;28;19908;-78
2021/10/19 01:14:13;;;;;;;;;;;26.50;43.50;;;;;;5111207;28;19918;-78
2021/10/19 01:16:38;;;;;;;;;;;26.50;43.60;;;;;;5094807;28;19995;-80
2021/10/19 01:19:09;;;;;;;;;;;26.50;43.70;;;;;;5094267;28;20017;-79
2021/10/19 01:21:37;;;;;;;;;;;26.50;43.70;;;;;;5110796;28;19909;-78
2021/10/19 01:24:02;;;;;;;;;;;26.50;43.70;;;;;;5128030;28;19938;-82
2021/10/19 01:26:30;;;;;;;;;;;26.50;43.70;;;;;;5093948;28;19969;-79
2021/10/19 01:28:56;;;;;;;;;;;26.50;43.70;;;;;;5095401;28;19908;-79
2021/10/19 01:31:22;;;;;;;;;;;26.50;43.70;;;;;;5128493;28;19961;-78
2021/10/19 01:33:47;;;;;;;;;;;26.50;43.70;;;;;;5128165;28;19916;-79
2021/10/19 01:36:13;;;;;;;;;;;26.50;43.80;;;;;;5094738;28;20002;-78
2021/10/19 01:38:40;;;;;;;;;;;26.50;43.80;;;;;;5094756;28;19912;-85
2021/10/19 01:41:05;;;;;;;;;;;26.50;43.80;;;;;;5093831;28;19909;-78
2021/10/19 01:43:31;;;;;;;;;;;26.40;43.80;;;;;;5110788;28;19927;-80
2021/10/19 01:45:57;;;;;;;;;;;26.40;43.80;;;;;;5094719;28;19960;-78
2021/10/19 01:48:23;;;;;;;;;;;26.40;43.80;;;;;;5129616;27;19915;-81
2021/10/19 01:50:51;;;;;;;;;;;26.50;43.80;;;;;;5114549;28;19908;-78
2021/10/19 01:53:16;;;;;;;;;;;26.50;43.90;;;;;;5130982;27;19931;-80
2021/10/19 01:55:42;;;;;;;;;;;26.40;43.90;;;;;;5131806;27;19908;-78
2021/10/19 01:58:08;;;;;;;;;;;26.40;43.90;;;;;;5131934;27;19927;-80
2021/10/19 02:00:34;;;;;;;;;;;26.40;43.90;;;;;;5131469;27;20249;-79
2021/10/19 02:02:59;;;;;;;;;;;26.40;43.90;;;;;;5097596;28;19971;-80
2021/10/19 02:05:27;;;;;;;;;;;26.40;43.90;;;;;;5131538;27;19943;-81
2021/10/19 02:07:54;;;;;;;;;;;26.40;43.90;;;;;;5113970;28;19934;-80
2021/10/19 02:10:21;;;;;;;;;;;26.40;43.90;;;;;;5131016;27;19909;-80
2021/10/19 02:12:47;;;;;;;;;;;26.40;43.90;;;;;;5130661;27;19908;-79
2021/10/19 02:15:12;;;;;;;;;;;26.40;43.90;;;;;;5114288;28;19999;-78
2021/10/19 02:17:38;;;;;;;;;;;26.40;44.00;;;;;;5131363;27;19947;-79
2021/10/19 02:20:04;;;;;;;;;;;26.30;44.00;;;;;;5114231;28;20397;-79
2021/10/19 02:22:30;;;;;;;;;;;26.40;44.00;;;;;;5113827;28;19916;-81
2021/10/19 02:24:58;;;;;;;;;;;26.40;44.00;;;;;;5131219;27;20007;-80
2021/10/19 02:27:24;;;;;;;;;;;26.40;44.00;;;;;;5113672;28;19908;-80
2021/10/19 02:29:49;;;;;;;;;;;26.40;44.00;;;;;;5131017;27;19908;-79
2021/10/19 02:32:15;;;;;;;;;;;26.30;43.90;;;;;;5131401;27;19958;-79
2021/10/19 02:34:41;;;;;;;;;;;26.40;44.10;;;;;;5131049;27;19912;-81
2021/10/19 02:37:06;;;;;;;;;;;26.40;44.00;;;;;;5130706;27;20025;-80
2021/10/19 02:39:34;;;;;;;;;;;26.30;44.00;;;;;;5130825;27;19915;-80
2021/10/19 02:42:02;;;;;;;;;;;26.30;44.00;;;;;;5097621;28;19908;-79
2021/10/19 02:44:30;;;;;;;;;;;26.30;44.10;;;;;;5130983;27;19944;-77
2021/10/19 02:46:55;;;;;;;;;;;26.40;44.10;;;;;;5098911;28;20328;-79
2021/10/19 02:49:23;;;;;;;;;;;26.40;44.10;;;;;;5098347;28;19912;-80
2021/10/19 02:51:49;;;;;;;;;;;26.40;44.20;;;;;;5130127;27;19908;-78
2021/10/19 02:54:16;;;;;;;;;;;26.30;44.10;;;;;;5097106;28;20392;-78
2021/10/19 02:56:42;;;;;;;;;;;26.30;44.20;;;;;;5113116;28;19908;-79
2021/10/19 02:59:09;;;;;;;;;;;26.30;44.20;;;;;;5096812;28;19919;-78
2021/10/19 03:01:37;;;;;;;;;;;26.30;44.20;;;;;;5129644;27;19908;-79
2021/10/19 03:04:03;;;;;;;;;;;26.30;44.20;;;;;;5130031;27;19912;-78
2021/10/19 03:06:28;;;;;;;;;;;26.30;44.30;;;;;;5096008;28;19973;-81
2021/10/19 03:08:54;;;;;;;;;;;26.30;44.30;;;;;;5096028;28;20011;-80
2021/10/19 03:11:20;;;;;;;;;;;26.30;44.30;;;;;;5130297;27;19908;-80
2021/10/19 03:13:48;;;;;;;;;;;26.30;44.30;;;;;;5130382;27;19982;-81
2021/10/19 03:16:13;;;;;;;;;;;26.30;44.30;;;;;;5130118;27;19916;-82
2021/10/19 03:18:39;;;;;;;;;;;26.30;44.30;;;;;;5096660;28;19954;-79
2021/10/19 03:21:07;;;;;;;;;;;26.30;44.40;;;;;;5112492;28;19908;-79
2021/10/19 03:23:32;;;;;;;;;;;26.30;44.40;;;;;;5096535;28;19923;-79
2021/10/19 03:25:58;;;;;;;;;;;26.30;44.50;;;;;;5096145;28;19908;-80
2021/10/19 03:28:23;;;;;;;;;;;26.30;44.50;;;;;;5112693;28;19908;-78
2021/10/19 03:30:51;;;;;;;;;;;26.30;44.40;;;;;;5129586;27;20355;-78
2021/10/19 03:33:17;;;;;;;;;;;26.30;44.50;;;;;;5096509;28;19912;-79
2021/10/19 03:35:42;;;;;;;;;;;26.30;44.50;;;;;;5129538;27;19912;-81
2021/10/19 03:38:10;;;;;;;;;;;26.20;44.40;;;;;;5129594;27;19925;-79
2021/10/19 03:40:36;;;;;;;;;;;26.30;44.50;;;;;;5095798;28;20046;-78
2021/10/19 03:43:01;;;;;;;;;;;26.20;44.50;;;;;;5096453;28;19977;-80
2021/10/19 03:45:29;;;;;;;;;;;26.30;44.50;;;;;;5112077;28;20015;-81
2021/10/19 03:47:55;;;;;;;;;;;26.30;44.60;;;;;;5096070;28;19908;-81
2021/10/19 03:50:23;;;;;;;;;;;26.30;44.50;;;;;;5095928;28;19931;-78
2021/10/19 03:52:48;;;;;;;;;;;26.20;44.50;;;;;;5128488;27;19908;-78
2021/10/19 03:55:14;;;;;;;;;;;26.20;44.50;;;;;;5129298;27;19918;-81
2021/10/19 03:57:39;;;;;;;;;;;26.30;44.50;;;;;;5129404;27;19915;-78
2021/10/19 04:00:06;;;;;;;;;;;26.20;44.50;;;;;;5112046;28;20344;-80
2021/10/19 04:02:34;;;;;;;;;;;26.10;41.00;;;;;;5095533;28;19945;-78
2021/10/19 04:04:59;;;;;;;;;;;25.30;37.80;;;;;;5094912;28;20325;-79
2021/10/19 04:07:25;;;;;;;;;;;24.40;37.90;;;;;;5095168;28;19965;-80
2021/10/19 04:09:50;;;;;;;;;;;23.70;38.80;;;;;;5128603;27;19973;-81
2021/10/19 04:12:18;;;;;;;;;;;23.70;40.20;;;;;;5095374;28;19908;-79
2021/10/19 04:14:43;;;;;;;;;;;24.10;40.70;;;;;;5095624;28;20396;-80
2021/10/19 04:17:09;;;;;;;;;;;24.50;40.90;;;;;;5128763;27;19970;-80
2021/10/19 04:19:34;;;;;;;;;;;24.90;40.60;;;;;;5128777;27;19908;-78
2021/10/19 04:22:00;;;;;;;;;;;25.10;40.50;;;;;;5128861;27;19908;-78
2021/10/19 04:24:25;;;;;;;;;;;25.30;40.30;;;;;;5128776;27;19939;-81
2021/10/19 04:26:53;;;;;;;;;;;25.50;40.30;;;;;;5094524;28;19913;-81
2021/10/19 04:29:21;;;;;;;;;;;25.50;40.20;;;;;;5128100;27;20287;-79
2021/10/19 04:31:47;;;;;;;;;;;25.60;40.20;;;;;;5128111;27;19998;-81
2021/10/19 04:34:12;;;;;;;;;;;25.70;40.50;;;;;;5111193;28;19962;-79
2021/10/19 04:36:38;;;;;;;;;;;25.80;41.90;;;;;;5128821;27;19968;-82
2021/10/19 04:39:04;;;;;;;;;;;25.80;43.60;;;;;;5128522;27;19948;-79
2021/10/19 04:41:29;;;;;;;;;;;25.90;43.70;;;;;;5128482;27;19912;-79
2021/10/19 04:43:55;;;;;;;;;;;25.90;44.00;;;;;;5094977;28;20205;-76
2021/10/19 04:46:20;;;;;;;;;;;26.00;44.00;;;;;;5128548;27;19908;-78
2021/10/19 04:48:46;;;;;;;;;;;26.00;44.30;;;;;;5094714;28;19908;-78
2021/10/19 04:51:11;;;;;;;;;;;26.00;44.70;;;;;;5128324;27;20007;-80
2021/10/19 04:53:40;;;;;;;;;;;26.00;44.70;;;;;;5094972;28;20325;-77
2021/10/19 04:56:09;;;;;;;;;;;26.00;44.80;;;;;;5127456;28;19914;-79
2021/10/19 04:58:34;;;;;;;;;;;26.10;44.80;;;;;;5094895;28;19938;-81
2021/10/19 05:01:02;;;;;;;;;;;26.10;44.60;;;;;;5128103;28;20371;-80
2021/10/19 05:03:30;;;;;;;;;;;26.10;44.50;;;;;;5094728;28;19912;-78
2021/10/19 05:05:55;;;;;;;;;;;26.10;44.40;;;;;;5094063;28;19915;-77
2021/10/19 05:08:23;;;;;;;;;;;26.10;44.40;;;;;;5094365;28;20014;-77
2021/10/19 05:10:49;;;;;;;;;;;26.10;44.40;;;;;;5094152;28;19966;-79
2021/10/19 05:13:14;;;;;;;;;;;26.20;44.50;;;;;;5128186;28;19912;-80
2021/10/19 05:15:40;;;;;;;;;;;26.20;44.50;;;;;;5094804;28;20240;-79
2021/10/19 05:18:05;;;;;;;;;;;26.20;44.50;;;;;;5128059;28;19922;-81
2021/10/19 05:20:31;;;;;;;;;;;26.20;44.50;;;;;;5111271;28;19974;-78
2021/10/19 05:22:59;;;;;;;;;;;26.20;44.50;;;;;;5114038;28;20244;-80
2021/10/19 05:25:24;;;;;;;;;;;26.30;44.50;;;;;;5114532;28;20253;-80
2021/10/19 05:27:50;;;;;;;;;;;26.30;44.50;;;;;;5132062;27;19908;-79
2021/10/19 05:30:17;;;;;;;;;;;26.30;44.50;;;;;;5114660;28;19908;-80
2021/10/19 05:32:43;;;;;;;;;;;26.30;44.50;;;;;;5114752;28;19915;-80
2021/10/19 05:35:08;;;;;;;;;;;26.30;44.40;;;;;;5098913;28;19919;-79
2021/10/19 05:37:34;;;;;;;;;;;26.30;44.50;;;;;;5131500;27;20238;-79
2021/10/19 05:39:59;;;;;;;;;;;26.30;44.40;;;;;;5131986;27;20418;-79
2021/10/19 05:42:25;;;;;;;;;;;26.30;44.40;;;;;;5097446;28;19923;-80
2021/10/19 05:44:50;;;;;;;;;;;26.30;44.40;;;;;;5131691;27;20144;-81
2021/10/19 05:47:16;;;;;;;;;;;26.30;44.40;;;;;;5098476;28;19919;-78
2021/10/19 05:49:41;;;;;;;;;;;26.30;44.40;;;;;;5114350;28;19955;-80
2021/10/19 05:52:07;;;;;;;;;;;26.40;44.40;;;;;;5097466;28;19912;-80
2021/10/19 05:54:32;;;;;;;;;;;26.40;44.40;;;;;;5131483;27;19908;-80
2021/10/19 05:57:00;;;;;;;;;;;26.40;44.40;;;;;;5098439;28;19908;-80
2021/10/19 05:59:25;;;;;;;;;;;26.40;44.40;;;;;;5098139;28;19968;-80
2021/10/19 06:01:55;;;;;;;;;;;26.40;44.30;;;;;;5097191;28;20314;-80
2021/10/19 06:04:21;;;;;;;;;;;26.40;44.30;;;;;;5097972;28;19912;-81
2021/10/19 06:06:56;;;;;;;;;;;26.40;44.30;;;;;;5114539;28;19985;-80
2021/10/19 06:09:22;;;;;;;;;;;26.40;44.90;;;;;;5131465;27;19912;-80
2021/10/19 06:11:50;;;;;;;;;;;26.40;44.30;;;;;;5097960;28;20011;-79
2021/10/19 06:14:15;;;;;;;;;;;26.40;44.30;;;;;;5113653;28;19951;-78
2021/10/19 06:16:43;;;;;;;;;;;26.40;44.30;;;;;;5131179;27;19912;-79
2021/10/19 06:19:12;;;;;;;;;;;26.40;44.40;;;;;;5096558;28;20406;-78
2021/10/19 06:21:38;;;;;;;;;;;26.40;44.40;;;;;;5097786;28;20352;-79
2021/10/19 06:24:05;;;;;;;;;;;26.40;44.50;;;;;;5130943;27;19955;-79
2021/10/19 06:26:35;;;;;;;;;;;26.40;44.40;;;;;;5130114;27;19912;-78
2021/10/19 06:29:01;;;;;;;;;;;26.40;44.40;;;;;;5129882;27;19927;-79
2021/10/19 06:31:26;;;;;;;;;;;26.40;44.40;;;;;;5130917;27;20333;-80
2021/10/19 06:33:52;;;;;;;;;;;26.50;44.40;;;;;;5129944;27;20011;-79
2021/10/19 06:36:17;;;;;;;;;;;26.40;44.50;;;;;;5130822;27;20010;-79
2021/10/19 06:38:43;;;;;;;;;;;26.40;44.50;;;;;;5097839;28;20397;-81
2021/10/19 06:41:11;;;;;;;;;;;26.40;44.40;;;;;;5131061;27;19907;-79
2021/10/19 06:43:39;;;;;;;;;;;26.50;44.40;;;;;;5113462;28;19912;-78
2021/10/19 06:46:04;;;;;;;;;;;26.50;44.40;;;;;;5096680;28;19919;-81
2021/10/19 06:48:30;;;;;;;;;;;26.50;44.40;;;;;;5097249;28;19908;-78
2021/10/19 06:50:55;;;;;;;;;;;26.40;44.30;;;;;;5130410;27;19908;-79
2021/10/19 06:53:21;;;;;;;;;;;26.40;44.30;;;;;;5113357;28;19923;-80
2021/10/19 06:55:49;;;;;;;;;;;26.40;43.90;;;;;;5113178;28;19915;-79
2021/10/19 06:58:17;;;;;;;;;;;26.10;37.80;;;;;;5097035;28;19962;-81
2021/10/19 07:00:45;;;;;;;;;;;25.50;37.50;;;;;;5096847;28;20245;-81
2021/10/19 07:03:10;;;;;;;;;;;25.40;39.00;;;;;;5129301;27;19912;-79
2021/10/19 07:05:38;;;;;;;;;;;25.40;40.60;;;;;;5113067;28;19930;-82
2021/10/19 07:08:07;;;;;;;;;;;25.60;41.00;;;;;;5129424;27;20344;-79
2021/10/19 07:10:32;;;;;;;;;;;25.70;40.90;;;;;;5095877;28;20293;-82
2021/10/19 07:12:58;;;;;;;;;;;25.80;41.10;;;;;;5129937;27;19970;-79
2021/10/19 07:15:23;;;;;;;;;;;25.90;46.50;;;;;;5112666;28;19908;-80
2021/10/19 07:17:49;;;;;;;;;;;26.00;47.70;;;;;;5112590;28;19908;-79
2021/10/19 07:20:14;;;;;;;;;;;26.00;48.20;;;;;;5112503;28;19908;-79
2021/10/19 07:22:40;;;;;;;;;;;26.10;48.70;;;;;;5095371;28;19969;-78
2021/10/19 07:25:06;;;;;;;;;;;26.20;49.30;;;;;;5129535;27;19908;-79
2021/10/19 07:27:34;;;;;;;;;;;26.30;49.70;;;;;;5112700;28;20002;-82
2021/10/19 07:30:00;;;;;;;;;;;26.30;49.60;;;;;;5112196;28;19909;-79
2021/10/19 07:32:25;;;;;;;;;;;26.30;49.60;;;;;;5095399;28;19919;-79
2021/10/19 07:34:56;;;;;;;;;;;26.40;49.70;;;;;;5129744;27;19916;-82
2021/10/19 07:37:24;;;;;;;;;;;26.40;49.60;;;;;;5128551;27;20031;-80
2021/10/19 07:39:49;;;;;;;;;;;26.40;49.20;;;;;;5112238;28;19908;-81
2021/10/19 07:42:17;;;;;;;;;;;26.50;49.50;;;;;;5129430;27;20364;-81
2021/10/19 07:44:45;;;;;;;;;;;26.50;49.30;;;;;;5111673;28;19919;-80
2021/10/19 07:47:11;;;;;;;;;;;26.50;49.30;;;;;;5111367;28;19908;-79
2021/10/19 07:49:39;;;;;;;;;;;26.50;49.10;;;;;;5112001;28;19915;-83
2021/10/19 07:52:07;;;;;;;;;;;26.50;49.70;;;;;;5129317;27;19908;-81
2021/10/19 07:54:34;;;;;;;;;;;26.50;49.00;;;;;;5095789;28;19908;-79
2021/10/19 07:57:00;;;;;;;;;;;26.60;49.00;;;;;;5128641;27;20308;-82
2021/10/19 07:59:30;;;;;;;;;;;26.60;48.80;;;;;;5129048;27;19920;-81
2021/10/19 08:01:58;;;;;;;;;;;26.60;48.70;;;;;;5095012;28;19919;-82
2021/10/19 08:04:26;;;;;;;;;;;26.70;48.60;;;;;;5094546;28;19912;-80
2021/10/19 08:06:52;;;;;;;;;;;26.70;48.60;;;;;;5094798;28;19942;-79
2021/10/19 08:09:17;;;;;;;;;;;26.70;48.50;;;;;;5095229;28;19908;-78
2021/10/19 08:11:43;;;;;;;;;;;26.70;48.40;;;;;;5094624;28;19908;-81
2021/10/19 08:14:13;;;;;;;;;;;26.70;48.20;;;;;;5096033;28;19999;-77
2021/10/19 08:16:39;;;;;;;;;;;26.70;48.10;;;;;;5111358;28;19933;-76
2021/10/19 08:19:07;;;;;;;;;;;26.70;48.10;;;;;;5128995;27;20002;-78
2021/10/19 08:21:35;;;;;;;;;;;26.70;48.00;;;;;;5128527;27;19908;-80
2021/10/19 08:24:00;;;;;;;;;;;26.70;48.00;;;;;;5111132;28;19948;-79
2021/10/19 08:26:30;;;;;;;;;;;26.70;47.90;;;;;;5095419;28;19962;-76
2021/10/19 08:28:59;;;;;;;;;;;26.80;47.90;;;;;;5095390;28;19909;-79
2021/10/19 08:31:27;;;;;;;;;;;26.80;47.80;;;;;;5095324;28;19919;-78
2021/10/19 08:33:55;;;;;;;;;;;26.80;47.60;;;;;;5095415;28;19951;-76
2021/10/19 08:36:23;;;;;;;;;;;26.80;47.50;;;;;;5094973;28;19924;-76
2021/10/19 08:38:51;;;;;;;;;;;26.80;47.50;;;;;;5094213;28;20430;-80
2021/10/19 08:41:17;;;;;;;;;;;26.80;47.50;;;;;;5095256;28;19908;-79
2021/10/19 08:43:43;;;;;;;;;;;26.90;47.50;;;;;;5095220;28;19912;-78
2021/10/19 08:46:09;;;;;;;;;;;26.90;47.50;;;;;;5128594;27;20313;-78
2021/10/19 08:48:38;;;;;;;;;;;26.90;47.40;;;;;;5128420;27;19908;-78
2021/10/19 08:51:04;;;;;;;;;;;26.90;47.50;;;;;;5094925;28;19965;-76
2021/10/19 08:53:30;;;;;;;;;;;26.90;47.40;;;;;;5094009;28;20310;-78
2021/10/19 08:55:58;;;;;;;;;;;26.90;47.30;;;;;;5095113;28;20006;-76
2021/10/19 08:58:28;;;;;;;;;;;26.90;47.40;;;;;;5128053;28;19997;-81
2021/10/19 09:01:05;;;;;;;;;;;26.90;47.40;;;;;;5094150;28;20340;-77
2021/10/19 09:03:31;;;;;;;;;;;27.00;47.40;;;;;;5094194;28;20343;-80
2021/10/19 09:05:56;;;;;;;;;;;27.00;47.40;;;;;;5111073;28;19908;-79
2021/10/19 09:08:27;;;;;;;;;;;27.00;47.40;;;;;;5111484;28;19908;-79
2021/10/19 09:10:52;;;;;;;;;;;27.00;47.40;;;;;;5094821;28;19908;-77
2021/10/19 09:13:18;;;;;;;;;;;27.00;47.40;;;;;;5110914;28;19908;-78
2021/10/19 09:15:45;;;;;;;;;;;27.00;47.40;;;;;;5127957;28;19908;-77
2021/10/19 09:18:12;;;;;;;;;;;27.00;47.30;;;;;;5128137;28;19908;-80
2021/10/19 09:20:40;;;;;;;;;;;27.00;47.30;;;;;;5128086;28;19913;-79
2021/10/19 09:23:06;;;;;;;;;;;27.00;47.20;;;;;;5095069;28;19912;-79
2021/10/19 09:25:32;;;;;;;;;;;27.00;47.30;;;;;;5111013;28;19912;-80
2021/10/19 09:28:01;;;;;;;;;;;27.00;47.30;;;;;;5094802;28;20000;-81
2021/10/19 09:30:37;;;;;;;;;;;27.00;47.20;;;;;;5127279;28;19908;-80
2021/10/19 09:33:08;;;;;;;;;;;27.00;47.20;;;;;;5110588;28;19912;-80
2021/10/19 09:35:34;;;;;;;;;;;27.00;47.20;;;;;;5127083;28;19931;-78
2021/10/19 09:38:04;;;;;;;;;;;27.00;47.70;;;;;;5127693;28;20347;-78
2021/10/19 09:40:31;;;;;;;;;;;27.00;47.20;;;;;;5127387;28;19955;-79
2021/10/19 09:43:02;;;;;;;;;;;27.00;47.00;;;;;;5127809;28;19912;-81
2021/10/19 09:45:28;;;;;;;;;;;27.00;47.10;;;;;;5110904;28;19964;-80
2021/10/19 09:47:54;;;;;;;;;;;27.00;47.20;;;;;;5095179;28;19964;-78
2021/10/19 09:50:20;;;;;;;;;;;27.00;47.20;;;;;;5127988;28;19908;-76
2021/10/19 09:52:45;;;;;;;;;;;27.10;47.20;;;;;;5127972;28;20241;-77
2021/10/19 09:55:12;;;;;;;;;;;27.10;47.10;;;;;;5127751;28;20371;-78
2021/10/19 09:57:42;;;;;;;;;;;27.10;47.10;;;;;;5127657;28;19908;-79
2021/10/19 10:00:11;;;;;;;;;;;27.10;47.00;;;;;;5109674;28;19979;-80
2021/10/19 10:02:37;;;;;;;;;;;27.10;47.20;;;;;;5126815;28;19912;-79
2021/10/19 10:05:03;;;;;;;;;;;27.10;47.00;;;;;;5127667;28;20347;-79
2021/10/19 10:07:31;;;;;;;;;;;27.10;47.10;;;;;;5127746;28;19968;-78
2021/10/19 10:09:57;;;;;;;;;;;27.10;47.00;;;;;;5129866;27;19908;-78
2021/10/19 10:12:29;;;;;;;;;;;27.10;46.80;;;;;;5098024;28;19908;-80
2021/10/19 10:14:57;;;;;;;;;;;26.70;39.40;;;;;;5098022;28;20339;-77
2021/10/19 10:17:25;;;;;;;;;;;26.00;37.80;;;;;;5097197;28;19987;-79
2021/10/19 10:19:50;;;;;;;;;;;25.40;41.80;;;;;;5096915;28;20264;-76
2021/10/19 10:22:16;;;;;;;;;;;25.70;43.10;;;;;;5097707;28;20393;-78
2021/10/19 10:24:42;;;;;;;;;;;25.90;43.20;;;;;;5096882;28;20216;-79
2021/10/19 10:27:08;;;;;;;;;;;26.20;43.50;;;;;;5113674;28;19965;-76
2021/10/19 10:29:44;;;;;;;;;;;26.30;43.70;;;;;;5130836;27;19919;-78
2021/10/19 10:32:22;;;;;;;;;;;26.50;43.80;;;;;;5097828;28;20252;-79
2021/10/19 10:34:57;;;;;;;;;;;26.60;44.00;;;;;;5130942;27;19919;-79
2021/10/19 10:37:25;;;;;;;;;;;26.70;44.20;;;;;;5130727;27;19946;-77
2021/10/19 10:39:51;;;;;;;;;;;26.70;44.30;;;;;;5130310;27;20274;-78
2021/10/19 10:42:16;;;;;;;;;;;26.80;44.40;;;;;;5113824;28;19912;-75
2021/10/19 10:44:45;;;;;;;;;;;26.80;44.50;;;;;;5130896;27;19978;-78
2021/10/19 10:47:11;;;;;;;;;;;26.80;44.50;;;;;;5129640;27;19912;-76
2021/10/19 10:49:36;;;;;;;;;;;26.90;44.60;;;;;;5130605;27;20336;-78
2021/10/19 10:52:12;;;;;;;;;;;26.90;44.60;;;;;;5130423;27;19908;-77
2021/10/19 10:54:38;;;;;;;;;;;26.90;44.70;;;;;;5130512;27;19912;-76
2021/10/19 10:57:03;;;;;;;;;;;26.90;44.80;;;;;;5113421;28;19915;-80
2021/10/19 10:59:29;;;;;;;;;;;26.90;44.80;;;;;;5096305;28;19923;-75
2021/10/19 11:02:04;;;;;;;;;;;26.90;44.80;;;;;;5097249;28;19919;-74
2021/10/19 11:04:32;;;;;;;;;;;27.00;44.90;;;;;;5129556;27;19947;-74
2021/10/19 11:06:58;;;;;;;;;;;27.00;44.90;;;;;;5097061;28;19962;-75
2021/10/19 11:09:27;;;;;;;;;;;27.00;45.00;;;;;;5130059;27;19916;-77
2021/10/19 11:11:53;;;;;;;;;;;27.00;45.00;;;;;;5096935;28;20002;-74
2021/10/19 11:14:23;;;;;;;;;;;27.00;45.00;;;;;;5096453;28;19970;-74
2021/10/19 11:16:55;;;;;;;;;;;27.00;45.00;;;;;;5129386;27;19908;-77
2021/10/19 11:19:27;;;;;;;;;;;27.00;44.80;;;;;;5096522;28;19908;-75
2021/10/19 11:21:57;;;;;;;;;;;27.00;44.80;;;;;;5112402;28;19908;-77
2021/10/19 11:24:23;;;;;;;;;;;26.90;44.80;;;;;;5096388;28;19916;-74
2021/10/19 11:26:51;;;;;;;;;;;26.90;44.80;;;;;;5096462;28;19908;-76
2021/10/19 11:29:19;;;;;;;;;;;26.90;44.80;;;;;;5096494;28;19910;-77
2021/10/19 11:31:45;;;;;;;;;;;26.90;44.80;;;;;;5128932;27;19991;-75
2021/10/19 11:34:10;;;;;;;;;;;26.90;44.80;;;;;;5096396;28;20344;-79
2021/10/19 11:36:38;;;;;;;;;;;26.80;44.70;;;;;;5095351;28;19916;-77
2021/10/19 11:39:11;;;;;;;;;;;26.80;44.70;;;;;;5128953;27;19966;-77
2021/10/19 11:41:39;;;;;;;;;;;26.80;44.70;;;;;;5127785;27;19915;-76
2021/10/19 11:44:04;;;;;;;;;;;26.80;45.30;;;;;;5096123;28;20007;-79
2021/10/19 11:46:31;;;;;;;;;;;26.80;44.70;;;;;;5129557;27;19950;-76
2021/10/19 11:49:02;;;;;;;;;;;26.80;44.70;;;;;;5129635;27;19909;-73
2021/10/19 11:51:28;;;;;;;;;;;26.80;44.70;;;;;;5129474;27;20003;-76
2021/10/19 11:53:57;;;;;;;;;;;26.80;44.70;;;;;;5129158;27;20002;-76
2021/10/19 11:56:23;;;;;;;;;;;26.70;44.70;;;;;;5129022;27;19908;-78
2021/10/19 11:58:49;;;;;;;;;;;26.70;44.70;;;;;;5095174;28;20248;-77
2021/10/19 12:01:14;;;;;;;;;;;26.70;44.70;;;;;;5094753;28;19991;-75
2021/10/19 12:03:42;;;;;;;;;;;26.70;44.70;;;;;;5095570;28;19912;-75
2021/10/19 12:06:08;;;;;;;;;;;26.70;44.70;;;;;;5095647;28;19987;-77
2021/10/19 12:08:36;;;;;;;;;;;26.70;44.70;;;;;;5095700;28;20324;-75
2021/10/19 12:11:11;;;;;;;;;;;26.70;44.70;;;;;;5095544;28;19912;-78
2021/10/19 12:13:37;;;;;;;;;;;26.70;44.80;;;;;;5128967;27;19938;-77
2021/10/19 12:16:03;;;;;;;;;;;26.60;44.80;;;;;;5112066;28;19955;-77
2021/10/19 12:18:38;;;;;;;;;;;26.60;44.80;;;;;;5094510;28;19943;-77
2021/10/19 12:21:05;;;;;;;;;;;26.60;44.80;;;;;;5128773;27;19915;-76
2021/10/19 12:23:31;;;;;;;;;;;26.60;44.80;;;;;;5111414;28;19943;-76
2021/10/19 12:25:56;;;;;;;;;;;26.60;44.80;;;;;;5095512;28;20276;-76
2021/10/19 12:28:24;;;;;;;;;;;26.60;44.80;;;;;;5094564;28;19908;-76
2021/10/19 12:30:49;;;;;;;;;;;26.60;44.90;;;;;;5128190;27;20363;-76
2021/10/19 12:33:19;;;;;;;;;;;26.50;44.80;;;;;;5128280;27;19907;-77
2021/10/19 12:35:48;;;;;;;;;;;26.50;44.80;;;;;;5095251;28;19908;-79
2021/10/19 12:38:16;;;;;;;;;;;26.60;44.90;;;;;;5094383;28;19977;-77
2021/10/19 12:40:45;;;;;;;;;;;26.50;44.80;;;;;;5111676;28;19938;-81
2021/10/19 12:43:13;;;;;;;;;;;26.50;44.80;;;;;;5095412;28;19966;-76
2021/10/19 12:45:41;;;;;;;;;;;26.50;44.80;;;;;;5128116;27;19908;-76
2021/10/19 12:48:09;;;;;;;;;;;26.50;44.90;;;;;;5127820;27;19908;-77
2021/10/19 12:50:35;;;;;;;;;;;26.50;44.90;;;;;;5094146;28;19919;-80
2021/10/19 12:53:00;;;;;;;;;;;26.50;44.90;;;;;;5128264;27;19908;-77
2021/10/19 12:55:28;;;;;;;;;;;26.50;44.90;;;;;;5095066;28;20019;-76
2021/10/19 12:57:53;;;;;;;;;;;26.50;44.90;;;;;;5094379;28;19995;-78
2021/10/19 13:00:19;;;;;;;;;;;26.50;44.90;;;;;;5094562;28;19927;-76
2021/10/19 13:02:45;;;;;;;;;;;26.50;44.90;;;;;;5128755;28;19912;-75
2021/10/19 13:05:13;;;;;;;;;;;26.50;44.90;;;;;;5128834;28;19915;-78
2021/10/19 13:07:45;;;;;;;;;;;26.50;44.90;;;;;;5094521;28;19970;-76
2021/10/19 13:10:10;;;;;;;;;;;26.50;44.90;;;;;;5095137;28;19908;-77
2021/10/19 13:12:36;;;;;;;;;;;26.40;44.90;;;;;;5094935;28;19908;-77
2021/10/19 13:15:02;;;;;;;;;;;26.40;44.90;;;;;;5111444;28;19916;-77
2021/10/19 13:17:27;;;;;;;;;;;26.40;44.90;;;;;;5111622;28;20310;-81
2021/10/19 13:19:53;;;;;;;;;;;26.40;44.90;;;;;;5095629;28;20312;-75
2021/10/19 13:22:18;;;;;;;;;;;26.40;44.90;;;;;;5128612;28;19908;-78
2021/10/19 13:24:47;;;;;;;;;;;26.40;45.00;;;;;;5128422;28;19912;-76
2021/10/19 13:27:13;;;;;;;;;;;26.40;45.00;;;;;;5130373;28;19942;-76
2021/10/19 13:29:43;;;;;;;;;;;26.40;45.00;;;;;;5098273;28;19908;-75
2021/10/19 13:32:09;;;;;;;;;;;26.40;44.90;;;;;;5131610;28;19908;-76
2021/10/19 13:34:39;;;;;;;;;;;26.40;44.90;;;;;;5098211;28;20348;-75
2021/10/19 13:37:07;;;;;;;;;;;26.40;45.50;;;;;;5131546;28;20355;-75
2021/10/19 13:39:33;;;;;;;;;;;26.40;44.90;;;;;;5132530;28;19987;-75
2021/10/19 13:41:58;;;;;;;;;;;26.40;45.00;;;;;;5099251;28;19943;-76
2021/10/19 13:44:24;;;;;;;;;;;26.40;45.00;;;;;;5102657;28;19923;-73
2021/10/19 13:46:51;;;;;;;;;;;26.30;44.90;;;;;;5101563;28;19914;-76
2021/10/19 13:49:19;;;;;;;;;;;26.30;44.90;;;;;;5098413;28;19908;-76
2021/10/19 13:51:45;;;;;;;;;;;26.30;45.00;;;;;;5131127;27;20287;-74
2021/10/19 13:54:13;;;;;;;;;;;26.30;44.90;;;;;;5114402;28;20355;-76
2021/10/19 13:56:38;;;;;;;;;;;26.30;45.00;;;;;;5130826;27;19912;-76
2021/10/19 13:59:07;;;;;;;;;;;26.30;45.30;;;;;;5114313;28;20383;-81
2021/10/19 14:01:35;;;;;;;;;;;26.30;46.60;;;;;;5130756;27;19972;-78
2021/10/19 14:04:00;;;;;;;;;;;26.30;47.00;;;;;;5131150;27;19977;-74
2021/10/19 14:06:26;;;;;;;;;;;26.40;47.50;;;;;;5097652;28;19912;-80
2021/10/19 14:08:56;;;;;;;;;;;26.50;47.10;;;;;;5131645;27;20249;-80
2021/10/19 14:11:22;;;;;;;;;;;26.50;47.00;;;;;;5130894;27;19976;-81
2021/10/19 14:13:54;;;;;;;;;;;26.60;47.10;;;;;;5098020;28;20397;-81